| time (UTC) | temp F | wind direction | speed MPH | gust MPH | rain 1hr in | rain 24hr in | rain mn in | humidity % | barometer mb |
| 20260507093018 | 51 | 360 | 5.0 | 10.0 | 0.04 | 0.44 | 0.18 | 85 | 1012.2 |
| 20260507091520 | 51 | 360 | 6.0 | 11.0 | 0.03 | 0.42 | 0.16 | 85 | 1012.0 |
| 20260507090014 | 51 | 177 | 2.0 | 9.0 | 0.01 | 0.40 | 0.14 | 85 | 1011.7 |
| 20260507084532 | 51 | 178 | 4.0 | 8.0 | 0.02 | 0.40 | 0.14 | 84 | 1011.7 |
| 20260507083019 | 51 | 218 | 4.0 | 9.0 | 0.02 | 0.40 | 0.14 | 83 | 1011.3 |
| 20260507081507 | 50 | 236 | 5.0 | 12.0 | 0.02 | 0.39 | 0.13 | 83 | 1011.1 |
| 20260507080005 | 51 | 225 | 3.0 | 9.0 | 0.03 | 0.39 | 0.13 | 82 | 1011.0 |
| 20260507074602 | 51 | 219 | 0.0 | 0.0 | 0.04 | 0.38 | 0.12 | 82 | 1010.7 |
| 20260507073108 | 50 | 360 | 0.0 | 0.0 | 0.06 | 0.38 | 0.12 | 82 | 1010.5 |
| 20260507071555 | 50 | 186 | 0.0 | 0.0 | 0.06 | 0.37 | 0.11 | 82 | 1010.4 |
| 20260507070106 | 50 | 210 | 0.0 | 0.0 | 0.06 | 0.36 | 0.10 | 83 | 1010.4 |
| 20260507064556 | 50 | 208 | 0.0 | 6.0 | 0.04 | 0.34 | 0.08 | 83 | 1010.2 |
| 20260507063055 | 50 | 205 | 3.0 | 7.0 | 0.02 | 0.32 | 0.06 | 84 | 1010.0 |
| 20260507061550 | 50 | 178 | 4.0 | 10.0 | 0.01 | 0.31 | 0.05 | 84 | 1009.9 |
| 20260507060048 | 50 | 180 | 4.0 | 11.0 | 0.00 | 0.30 | 0.04 | 84 | 1009.8 |
| 20260507054545 | 50 | 171 | 5.0 | 8.0 | 0.00 | 0.30 | 0.04 | 83 | 1009.6 |
| 20260507053043 | 50 | 172 | 2.0 | 8.0 | 0.00 | 0.30 | 0.04 | 83 | 1009.4 |
| 20260507051540 | 50 | 164 | 5.0 | 10.0 | 0.00 | 0.30 | 0.04 | 83 | 1009.3 |
| 20260507050100 | 49 | 167 | 4.0 | 8.0 | 0.00 | 0.30 | 0.04 | 83 | 1009.0 |
| 20260507044546 | 49 | 164 | 4.0 | 7.0 | 0.00 | 0.30 | 0.04 | 83 | 1008.9 |
| 20260507043031 | 49 | 360 | 1.0 | 6.0 | 0.00 | 0.30 | 0.04 | 83 | 1008.8 |
| 20260507041529 | 49 | 115 | 0.0 | 0.0 | 0.00 | 0.30 | 0.04 | 83 | 1008.6 |
| 20260507040028 | 49 | 115 | 0.0 | 0.0 | 0.00 | 0.30 | 0.04 | 83 | 1008.5 |
| 20260507034534 | 49 | 187 | 0.0 | 0.0 | 0.00 | 0.30 | 0.04 | 83 | 1008.5 |
| 20260507033031 | 49 | 186 | 0.0 | 0.0 | 0.00 | 0.30 | 0.04 | 83 | 1008.5 |
| 20260507031531 | 49 | 134 | 0.0 | 0.0 | 0.00 | 0.30 | 0.04 | 83 | 1008.5 |
| 20260507030026 | 50 | 121 | 0.0 | 0.0 | 0.00 | 0.30 | 0.04 | 83 | 1008.4 |
| 20260507024522 | 50 | 115 | 0.0 | 0.0 | 0.00 | 0.30 | 0.04 | 82 | 1008.3 |
| 20260507023021 | 50 | 116 | 0.0 | 0.0 | 0.00 | 0.30 | 0.04 | 82 | 1008.4 |
| 20260507021533 | 50 | 192 | 2.0 | 9.0 | 0.00 | 0.30 | 0.04 | 82 | 1008.3 |
| 20260507020022 | 50 | 201 | 3.0 | 6.0 | 0.00 | 0.30 | 0.04 | 82 | 1008.0 |
| 20260507014520 | 50 | 180 | 3.0 | 6.0 | 0.00 | 0.30 | 0.04 | 82 | 1008.0 |
| 20260507013013 | 50 | 360 | 3.0 | 8.0 | 0.01 | 0.30 | 0.04 | 82 | 1007.8 |
| 20260507011517 | 50 | 360 | 2.0 | 7.0 | 0.02 | 0.30 | 0.04 | 82 | 1007.8 |
| 20260507010027 | 50 | 173 | 4.0 | 11.0 | 0.02 | 0.30 | 0.04 | 82 | 1007.9 |
| 20260507004509 | 51 | 227 | 3.0 | 11.0 | 0.02 | 0.30 | 0.04 | 82 | 1007.8 |
| 20260507003006 | 52 | 173 | 8.0 | 12.0 | 0.01 | 0.28 | 0.03 | 81 | 1007.8 |
| 20260507001504 | 52 | 159 | 2.0 | 8.0 | 0.00 | 0.28 | 0.02 | 81 | 1007.8 |
| 20260507000004 | 52 | 191 | 4.0 | 8.0 | 0.01 | 0.28 | 0.02 | 81 | 1007.8 |
| 20260506234502 | 52 | 170 | 2.0 | 7.0 | 0.01 | 0.28 | 0.02 | 81 | 1007.8 |
| 20260506233002 | 52 | 169 | 3.0 | 7.0 | 0.01 | 0.28 | 0.02 | 81 | 1007.7 |
| 20260506231601 | 52 | 360 | 3.0 | 5.0 | 0.02 | 0.28 | 0.02 | 82 | 1007.7 |
| 20260506230100 | 52 | 170 | 4.0 | 7.0 | 0.01 | 0.27 | 0.01 | 82 | 1007.8 |
| 20260506224557 | 52 | 172 | 4.0 | 7.0 | 0.01 | 0.27 | 0.01 | 83 | 1007.5 |
| 20260506223100 | 52 | 173 | 3.0 | 11.0 | 0.01 | 0.27 | 0.01 | 83 | 1007.2 |
| 20260506221555 | 52 | 171 | 5.0 | 10.0 | 0.00 | 0.26 | 0.00 | 83 | 1007.2 |
| 20260506220049 | 52 | 175 | 4.0 | 9.0 | 0.00 | 0.26 | 0.00 | 83 | 1007.1 |
| 20260506214548 | 52 | 360 | 6.0 | 10.0 | 0.01 | 0.26 | 0.26 | 84 | 1007.2 |
| 20260506213047 | 53 | 200 | 4.0 | 10.0 | 0.01 | 0.26 | 0.26 | 84 | 1007.2 |
| 20260506211546 | 53 | 178 | 9.0 | 12.0 | 0.02 | 0.26 | 0.26 | 84 | 1006.9 |
| 20260506210046 | 53 | 159 | 6.0 | 12.0 | 0.02 | 0.26 | 0.26 | 84 | 1007.1 |
| 20260506204554 | 54 | 173 | 5.0 | 7.0 | 0.01 | 0.25 | 0.25 | 83 | 1006.7 |
| 20260506203042 | 54 | 171 | 4.0 | 6.0 | 0.00 | 0.24 | 0.24 | 84 | 1006.8 |
| 20260506201541 | 54 | 213 | 4.0 | 8.0 | 0.00 | 0.24 | 0.24 | 84 | 1006.4 |
| 20260506200044 | 54 | 205 | 1.0 | 5.0 | 0.00 | 0.24 | 0.24 | 84 | 1006.3 |
| 20260506194548 | 55 | 190 | 0.0 | 5.0 | 0.01 | 0.24 | 0.24 | 84 | 1006.2 |
| 20260506193037 | 55 | 191 | 0.0 | 6.0 | 0.04 | 0.24 | 0.24 | 84 | 1006.2 |
| 20260506191537 | 55 | 174 | 4.0 | 9.0 | 0.07 | 0.24 | 0.24 | 84 | 1006.0 |
| 20260506190039 | 55 | 122 | 0.0 | 0.0 | 0.11 | 0.24 | 0.24 | 85 | 1005.6 |
| 20260506184536 | 55 | 183 | 0.0 | 4.0 | 0.10 | 0.23 | 0.23 | 85 | 1005.3 |
| 20260506183038 | 56 | 160 | 1.0 | 7.0 | 0.07 | 0.20 | 0.20 | 85 | 1005.3 |
| 20260506181536 | 56 | 159 | 5.0 | 11.0 | 0.03 | 0.16 | 0.16 | 85 | 1005.3 |
| 20260506180033 | 56 | 194 | 2.0 | 5.0 | 0.00 | 0.13 | 0.13 | 86 | 1005.1 |
| 20260506174533 | 56 | 232 | 1.0 | 3.0 | 0.01 | 0.13 | 0.13 | 86 | 1004.6 |
| 20260506173032 | 56 | 44 | 0.0 | 3.0 | 0.02 | 0.13 | 0.13 | 86 | 1004.4 |
| 20260506171540 | 56 | 55 | 0.0 | 0.0 | 0.03 | 0.13 | 0.13 | 86 | 1003.9 |
| 20260506170035 | 57 | 55 | 0.0 | 0.0 | 0.13 | 0.13 | 0.13 | 86 | 1004.0 |
| 20260506164535 | 57 | 53 | 0.0 | 0.0 | 0.12 | 0.19 | 0.12 | 85 | 1004.2 |
| 20260506163129 | 58 | 52 | 0.0 | 1.0 | 0.11 | 0.18 | 0.11 | 85 | 1004.3 |
| 20260506161537 | 59 | 122 | 0.0 | 0.0 | 0.09 | 0.16 | 0.09 | 81 | 1004.3 |
| 20260506160040 | 61 | 121 | 0.0 | 0.0 | 0.00 | 0.07 | 0.00 | 76 | 1004.0 |
| 20260506154531 | 62 | 148 | 0.0 | 0.0 | 0.00 | 0.09 | 0.00 | 72 | 1003.9 |
| 20260506153025 | 62 | 169 | 0.0 | 0.0 | 0.00 | 0.09 | 0.00 | 71 | 1004.0 |
| 20260506151533 | 63 | 161 | 0.0 | 0.0 | 0.00 | 0.09 | 0.00 | 69 | 1004.0 |
| 20260506150030 | 65 | 148 | 2.0 | 9.0 | 0.00 | 0.09 | 0.00 | 64 | 1004.0 |
| 20260506144525 | 66 | 229 | 0.0 | 1.0 | 0.00 | 0.09 | 0.00 | 59 | 1003.7 |
| 20260506143037 | 66 | 213 | 2.0 | 9.0 | 0.00 | 0.09 | 0.00 | 58 | 1003.6 |
| 20260506141520 | 67 | 222 | 0.0 | 0.0 | 0.00 | 0.09 | 0.00 | 58 | 1003.6 |
| 20260506140020 | 66 | 242 | 0.0 | 6.0 | 0.00 | 0.09 | 0.00 | 58 | 1003.6 |
| 20260506134518 | 66 | 259 | 1.0 | 4.0 | 0.00 | 0.09 | 0.00 | 58 | 1003.6 |
| 20260506133020 | 67 | 222 | 1.0 | 7.0 | 0.00 | 0.09 | 0.00 | 59 | 1003.8 |
| 20260506131516 | 66 | 166 | 0.0 | 1.0 | 0.00 | 0.09 | 0.00 | 59 | 1003.9 |
| 20260506130014 | 66 | 207 | 3.0 | 6.0 | 0.00 | 0.09 | 0.00 | 60 | 1004.2 |
| 20260506124512 | 67 | 144 | 0.0 | 0.0 | 0.00 | 0.09 | 0.00 | 58 | 1004.2 |
| 20260506123010 | 67 | 165 | 0.0 | 0.0 | 0.00 | 0.09 | 0.00 | 57 | 1004.5 |
| 20260506121507 | 67 | 149 | 0.0 | 0.0 | 0.00 | 0.09 | 0.00 | 62 | 1004.4 |
| 20260506120006 | 66 | 166 | 0.0 | 0.0 | 0.00 | 0.09 | 0.00 | 60 | 1004.6 |
| 20260506114505 | 66 | 133 | 0.0 | 0.0 | 0.00 | 0.09 | 0.00 | 62 | 1004.6 |
| 20260506113007 | 67 | 146 | 0.0 | 0.0 | 0.00 | 0.09 | 0.00 | 60 | 1004.7 |
| 20260506111502 | 66 | 159 | 0.0 | 0.0 | 0.00 | 0.09 | 0.00 | 65 | 1004.8 |
| 20260506110104 | 66 | 176 | 0.0 | 0.0 | 0.00 | 0.09 | 0.00 | 65 | 1005.0 |
| 20260506104615 | 65 | 189 | 0.0 | 0.0 | 0.00 | 0.09 | 0.00 | 64 | 1005.0 |
| 20260506103053 | 64 | 192 | 0.0 | 6.0 | 0.00 | 0.09 | 0.00 | 69 | 1005.1 |
| 20260506101556 | 63 | 360 | 1.0 | 5.0 | 0.00 | 0.09 | 0.00 | 70 | 1005.2 |
| 20260506100047 | 63 | 360 | 0.0 | 0.0 | 0.00 | 0.09 | 0.00 | 71 | 1005.1 |
| 20260506094554 | 62 | 360 | 0.0 | 0.0 | 0.00 | 0.09 | 0.00 | 71 | 1005.2 |